Time;durP1;ratioP1;P1;durP2;ratioP2;P2;SDS_P1;SDS_P2;PMS_P1;PMS_P2;Temp;Humidity;BMP_temperature;BMP_pressure;BME280_temperature;BME280_humidity;BME280_pressure;Samples;Min_cycle;Max_cycle;Signal;HPM_P1;HPM_P2
2023/02/11 00:01:00;;;;;;;37.43;22.00;;;6.30;99.90;;;;;;5041765;28;20479;-85
2023/02/11 00:03:35;;;;;;;38.87;19.53;;;6.30;99.90;;;;;;5041651;28;20467;-84
2023/02/11 00:06:09;;;;;;;32.43;17.97;;;6.30;99.90;;;;;;5042632;28;20938;-85
2023/02/11 00:08:44;;;;;;;34.97;18.70;;;6.30;99.90;;;;;;5041746;28;20488;-85
2023/02/11 00:11:15;;;;;;;30.63;18.20;;;6.30;99.90;;;;;;5024226;28;20458;-86
2023/02/11 00:13:49;;;;;;;34.40;19.90;;;6.30;99.90;;;;;;5023768;28;20464;-86
2023/02/11 00:16:19;;;;;;;39.70;19.60;;;6.20;99.90;;;;;;5024019;28;20462;-86
2023/02/11 00:19:13;;;;;;;35.10;19.93;;;6.10;99.90;;;;;;5040873;28;20530;-85
2023/02/11 00:21:44;;;;;;;33.60;20.57;;;6.00;99.90;;;;;;5041301;28;20448;-86
2023/02/11 00:24:20;;;;;;;23.07;13.93;;;5.80;99.90;;;;;;5041854;28;20527;-85
2023/02/11 00:26:57;;;;;;;35.57;23.90;;;5.70;99.90;;;;;;5040275;28;20499;-86
2023/02/11 00:32:19;;;;;;;38.70;26.03;;;5.70;99.90;;;;;;5041005;28;20467;-86
2023/02/11 00:34:58;;;;;;;41.63;33.17;;;5.60;99.90;;;;;;5041456;28;20976;-86
2023/02/11 00:37:40;;;;;;;40.07;34.40;;;5.60;99.90;;;;;;5024010;28;20452;-86
2023/02/11 00:40:23;;;;;;;43.60;39.00;;;5.50;99.90;;;;;;5042017;28;20424;-85
2023/02/11 00:42:56;;;;;;;34.17;27.23;;;5.50;99.90;;;;;;5041298;28;20460;-86
2023/02/11 00:45:29;;;;;;;44.50;38.40;;;5.50;99.90;;;;;;5040929;28;20588;-85
2023/02/11 00:47:59;;;;;;;47.93;43.43;;;5.50;99.90;;;;;;5040965;28;20536;-85
2023/02/11 00:50:41;;;;;;;51.40;46.83;;;5.40;99.90;;;;;;5022953;28;20467;-86
2023/02/11 00:53:19;;;;;;;63.70;58.87;;;5.40;99.90;;;;;;5041656;28;20813;-84
2023/02/11 00:55:54;;;;;;;74.97;68.93;;;5.50;99.90;;;;;;5040937;28;20448;-84
2023/02/11 00:58:26;;;;;;;85.97;79.03;;;5.30;99.90;;;;;;5041723;28;20472;-84
2023/02/11 01:01:00;;;;;;;111.67;105.13;;;5.20;99.90;;;;;;5041324;28;20907;-84
2023/02/11 01:03:30;;;;;;;163.37;153.67;;;5.10;99.90;;;;;;5041739;28;20463;-85
2023/02/11 01:06:12;;;;;;;215.00;204.87;;;5.00;99.90;;;;;;5041344;28;20456;-84
2023/02/11 01:08:45;;;;;;;211.73;201.73;;;4.90;99.90;;;;;;5041497;28;20486;-84
2023/02/11 01:11:20;;;;;;;246.63;236.10;;;5.00;99.90;;;;;;5041265;28;20449;-85
2023/02/11 01:13:58;;;;;;;225.63;215.00;;;5.00;99.90;;;;;;5023053;28;20460;-86
2023/02/11 01:16:30;;;;;;;195.57;186.77;;;5.20;99.90;;;;;;5041084;28;20456;-86
2023/02/11 01:21:53;;;;;;;184.87;175.40;;;5.20;99.90;;;;;;5040343;28;20484;-86
2023/02/11 01:24:30;;;;;;;164.40;155.77;;;5.20;99.90;;;;;;5040670;28;20448;-86
2023/02/11 01:26:58;;;;;;;180.87;172.00;;;5.30;99.90;;;;;;5041289;28;20503;-86
2023/02/11 01:29:25;;;;;;;116.27;109.67;;;5.30;99.90;;;;;;5039903;28;20583;-86
2023/02/11 01:31:55;;;;;;;104.80;98.23;;;5.40;99.90;;;;;;5040678;28;20456;-86
2023/02/11 01:34:24;;;;;;;94.63;88.53;;;5.60;99.90;;;;;;5040601;28;20518;-86
2023/02/11 01:37:09;;;;;;;115.37;108.63;;;5.50;99.90;;;;;;5040326;28;20460;-86
2023/02/11 01:39:37;;;;;;;79.73;73.87;;;5.50;99.90;;;;;;5039809;28;20472;-86
2023/02/11 01:42:10;;;;;;;70.53;64.43;;;5.70;99.90;;;;;;5040499;28;20483;-85
2023/02/11 01:44:45;;;;;;;52.17;47.20;;;5.70;99.90;;;;;;5040162;28;20467;-87
2023/02/11 01:47:20;;;;;;;56.13;50.90;;;5.70;99.90;;;;;;5039980;28;20474;-86
2023/02/11 01:49:59;;;;;;;52.80;36.87;;;5.70;99.90;;;;;;5040491;28;20474;-86
2023/02/11 01:52:39;;;;;;;39.87;32.20;;;5.80;99.90;;;;;;5040657;28;20486;-85
2023/02/11 01:58:02;;;;;;;37.57;29.93;;;5.80;99.90;;;;;;5040467;28;20419;-86
2023/02/11 02:00:40;;;;;;;34.87;27.57;;;5.90;99.90;;;;;;5040756;28;20433;-86
2023/02/11 02:03:16;;;;;;;38.87;28.80;;;5.80;99.90;;;;;;5040722;28;20444;-85
2023/02/11 02:05:54;;;;;;;28.93;23.67;;;5.90;99.90;;;;;;5040418;28;20444;-85
2023/02/11 02:08:40;;;;;;;32.30;24.30;;;6.00;99.90;;;;;;5039820;28;20587;-84
2023/02/11 02:11:08;;;;;;;35.67;28.17;;;6.00;99.90;;;;;;5040173;28;20486;-85
2023/02/11 02:13:40;;;;;;;29.77;22.27;;;5.90;99.90;;;;;;5039943;28;20456;-84
2023/02/11 02:16:13;;;;;;;26.57;23.77;;;5.80;99.90;;;;;;5039773;28;20478;-86
2023/02/11 02:18:59;;;;;;;38.10;29.37;;;5.90;99.90;;;;;;5040341;28;20837;-85
2023/02/11 02:21:58;;;;;;;47.33;34.87;;;5.80;99.90;;;;;;5037598;28;20456;-86
2023/02/11 02:24:58;;;;;;;44.00;34.80;;;5.70;99.90;;;;;;5034000;28;20456;-86
2023/02/11 02:27:46;;;;;;;48.90;42.87;;;5.70;99.90;;;;;;5040059;28;20458;-86
2023/02/11 02:30:47;;;;;;;56.90;51.90;;;5.60;99.90;;;;;;5039438;28;20458;-87
2023/02/11 02:33:39;;;;;;;69.80;63.50;;;5.60;99.90;;;;;;5039465;28;20957;-86
2023/02/11 02:36:20;;;;;;;86.33;80.33;;;5.60;99.90;;;;;;5039763;28;20452;-85
2023/02/11 02:38:59;;;;;;;102.63;95.43;;;5.50;99.90;;;;;;5040276;28;20472;-86
2023/02/11 02:41:36;;;;;;;121.03;113.33;;;5.40;99.90;;;;;;5021816;28;20510;-86
2023/02/11 02:44:14;;;;;;;104.30;98.10;;;5.40;99.90;;;;;;5022014;28;20515;-85
2023/02/11 02:46:47;;;;;;;130.00;122.23;;;5.30;99.90;;;;;;5039501;28;20444;-85
2023/02/11 02:49:32;;;;;;;187.40;177.93;;;5.30;99.90;;;;;;5039448;28;20487;-86
2023/02/11 02:52:21;;;;;;;210.97;200.87;;;5.20;99.90;;;;;;5043754;28;20846;-87
2023/02/11 02:55:18;;;;;;;210.67;199.27;;;5.20;99.90;;;;;;5043625;28;20466;-86
2023/02/11 02:58:10;;;;;;;246.63;236.10;;;5.30;99.90;;;;;;5043530;28;20832;-84
2023/02/11 03:00:57;;;;;;;198.43;189.20;;;5.30;99.90;;;;;;5043185;28;20448;-86
2023/02/11 03:03:38;;;;;;;221.03;210.53;;;5.40;99.90;;;;;;5043646;28;20456;-86
2023/02/11 03:06:24;;;;;;;164.73;155.73;;;5.40;99.90;;;;;;5043932;28;20935;-86
2023/02/11 03:09:19;;;;;;;150.80;142.00;;;5.40;99.90;;;;;;5042762;28;20586;-87
2023/02/11 03:11:51;;;;;;;127.97;120.23;;;5.40;99.90;;;;;;5043026;28;20456;-84
2023/02/11 03:14:25;;;;;;;133.40;126.07;;;5.50;99.90;;;;;;5025477;28;20464;-85
2023/02/11 03:17:01;;;;;;;108.00;101.23;;;5.50;99.90;;;;;;5043561;28;20480;-85
2023/02/11 03:22:23;;;;;;;92.87;86.87;;;5.60;99.90;;;;;;4982170;28;20541;-84
2023/02/11 03:24:58;;;;;;;110.90;103.13;;;5.60;99.90;;;;;;4982471;28;20494;-85
2023/02/11 03:27:38;;;;;;;102.57;95.70;;;5.60;99.90;;;;;;4984061;28;20517;-85
2023/02/11 03:30:23;;;;;;;111.87;104.17;;;5.70;99.90;;;;;;4983904;28;20480;-85
2023/02/11 03:33:08;;;;;;;113.50;106.47;;;5.70;99.90;;;;;;4983647;28;20457;-85
2023/02/11 03:35:42;;;;;;;112.00;103.87;;;5.60;99.90;;;;;;4984032;28;20432;-85
2023/02/11 03:41:13;;;;;;;113.47;106.40;;;5.70;99.90;;;;;;4983391;28;20478;-85
2023/02/11 03:43:46;;;;;;;106.20;98.87;;;5.70;99.90;;;;;;4983810;28;20458;-85
2023/02/11 03:46:21;;;;;;;103.77;96.77;;;5.70;99.90;;;;;;4984302;28;21030;-84
2023/02/11 03:48:57;;;;;;;93.73;87.50;;;5.70;99.90;;;;;;4983624;28;20506;-85
2023/02/11 03:51:37;;;;;;;84.20;77.47;;;5.70;99.90;;;;;;4983641;28;20468;-85
2023/02/11 03:54:23;;;;;;;70.80;64.37;;;5.80;99.90;;;;;;4983447;28;20467;-85
2023/02/11 03:56:56;;;;;;;76.83;70.80;;;5.80;99.90;;;;;;4984221;28;20450;-86
2023/02/11 03:59:31;;;;;;;79.90;73.50;;;5.80;99.90;;;;;;4982320;28;20475;-86
2023/02/11 04:02:02;;;;;;;79.17;73.27;;;5.80;99.90;;;;;;4983305;28;20980;-85
2023/02/11 04:04:34;;;;;;;78.00;71.13;;;5.70;99.90;;;;;;4984299;28;20490;-86
2023/02/11 04:07:08;;;;;;;78.87;72.90;;;5.80;99.90;;;;;;4983529;28;20497;-84
2023/02/11 04:09:42;;;;;;;82.13;75.70;;;5.80;99.90;;;;;;4983228;28;20537;-84
2023/02/11 04:12:23;;;;;;;85.77;79.37;;;5.80;99.90;;;;;;4982432;28;20458;-85
2023/02/11 04:15:02;;;;;;;76.00;70.60;;;5.80;99.90;;;;;;4983564;28;20458;-85
2023/02/11 04:17:35;;;;;;;80.20;74.23;;;5.80;99.90;;;;;;4982871;28;20459;-85
2023/02/11 04:20:15;;;;;;;91.27;84.37;;;5.80;99.90;;;;;;4982848;28;20533;-86
2023/02/11 04:23:00;;;;;;;85.40;79.53;;;5.80;99.90;;;;;;4981097;28;20482;-86
2023/02/11 04:25:33;;;;;;;78.87;72.97;;;5.80;99.90;;;;;;4983375;28;20467;-84
2023/02/11 04:28:19;;;;;;;89.97;84.23;;;5.90;99.90;;;;;;4982968;28;20470;-85
2023/02/11 04:30:50;;;;;;;86.00;80.20;;;5.80;99.90;;;;;;4982867;28;20554;-85
2023/02/11 04:33:24;;;;;;;103.30;97.07;;;5.90;99.90;;;;;;4983429;28;20949;-85
2023/02/11 04:35:54;;;;;;;99.60;93.27;;;5.80;99.90;;;;;;4981854;28;20451;-85
2023/02/11 04:38:36;;;;;;;105.17;98.03;;;5.90;99.90;;;;;;4982932;28;20481;-84
2023/02/11 04:41:20;;;;;;;127.50;120.70;;;5.80;99.90;;;;;;4982052;28;20465;-84
2023/02/11 04:43:49;;;;;;;119.57;112.27;;;5.80;99.90;;;;;;4982830;28;20458;-85
2023/02/11 04:46:24;;;;;;;112.53;104.73;;;5.80;99.90;;;;;;4982534;28;20965;-85
2023/02/11 04:49:03;;;;;;;130.97;123.70;;;6.00;99.90;;;;;;4982839;28;20544;-84
2023/02/11 04:51:30;;;;;;;125.37;118.60;;;5.90;99.90;;;;;;4982233;28;21017;-85
2023/02/11 04:56:46;;;;;;;108.83;102.07;;;5.90;99.90;;;;;;4982419;28;20455;-86
2023/02/11 04:59:15;;;;;;;89.73;83.97;;;5.90;99.90;;;;;;4982394;28;21003;-86
2023/02/11 05:01:49;;;;;;;127.43;119.93;;;5.90;99.90;;;;;;4982554;28;20455;-85
2023/02/11 05:04:25;;;;;;;148.63;140.83;;;5.90;99.90;;;;;;4982103;28;20455;-84
2023/02/11 05:07:12;;;;;;;148.10;139.70;;;5.90;99.90;;;;;;4982636;28;20449;-83
2023/02/11 05:09:50;;;;;;;144.23;136.63;;;6.00;99.90;;;;;;4981890;28;20506;-85
2023/02/11 05:12:29;;;;;;;151.17;143.33;;;5.90;99.90;;;;;;4981918;28;20465;-86
2023/02/11 05:15:02;;;;;;;136.87;129.60;;;5.90;99.90;;;;;;4982068;28;20521;-86
2023/02/11 05:17:32;;;;;;;161.03;152.17;;;5.90;99.90;;;;;;4981973;28;20443;-86
2023/02/11 05:20:10;;;;;;;173.00;163.97;;;5.90;99.90;;;;;;4982100;28;20538;-85
2023/02/11 05:22:48;;;;;;;224.27;214.57;;;5.90;99.90;;;;;;4982173;28;20455;-86
2023/02/11 05:25:22;;;;;;;209.50;198.80;;;5.90;99.90;;;;;;4982050;28;20542;-86
2023/02/11 05:27:54;;;;;;;181.27;171.63;;;6.00;99.90;;;;;;4982394;28;20459;-85
2023/02/11 05:30:25;;;;;;;231.03;220.07;;;5.90;99.90;;;;;;4982522;28;20481;-86
2023/02/11 05:32:59;;;;;;;248.80;237.27;;;5.90;99.90;;;;;;4981420;28;20494;-86
2023/02/11 05:35:33;;;;;;;296.07;283.10;;;6.00;99.90;;;;;;4981603;28;20555;-86
2023/02/11 05:38:06;;;;;;;315.47;302.27;;;5.90;99.90;;;;;;4982083;28;20458;-86
2023/02/11 05:40:36;;;;;;;401.20;385.00;;;5.90;99.90;;;;;;4981416;28;20474;-86
2023/02/11 05:43:25;;;;;;;392.73;376.13;;;5.80;99.90;;;;;;4980748;28;20513;-84
2023/02/11 05:46:04;;;;;;;393.27;376.67;;;5.90;99.90;;;;;;4981980;28;20955;-85
2023/02/11 05:48:33;;;;;;;404.23;387.10;;;5.90;99.90;;;;;;4980471;28;21019;-85
2023/02/11 05:51:05;;;;;;;481.47;461.30;;;5.80;99.90;;;;;;4980786;28;20484;-86
2023/02/11 05:53:37;;;;;;;548.50;523.33;;;5.90;99.90;;;;;;4980826;28;20465;-85
2023/02/11 05:56:06;;;;;;;558.03;532.03;;;5.90;99.90;;;;;;4981147;28;20483;-85
2023/02/11 05:58:41;;;;;;;604.87;575.40;;;5.80;99.90;;;;;;4980095;28;20514;-85
2023/02/11 06:01:14;;;;;;;623.43;592.83;;;5.80;99.90;;;;;;4980159;28;20451;-86
2023/02/11 06:03:48;;;;;;;646.30;613.00;;;5.80;99.90;;;;;;4980958;28;20504;-83
2023/02/11 06:06:24;;;;;;;652.20;619.37;;;5.80;99.90;;;;;;4978884;28;20462;-85
2023/02/11 06:08:59;;;;;;;659.13;624.43;;;5.80;99.90;;;;;;4979413;28;20497;-85
2023/02/11 06:11:30;;;;;;;661.10;628.03;;;5.80;99.90;;;;;;4980760;28;20466;-84
2023/02/11 06:14:10;;;;;;;652.50;619.63;;;5.90;99.90;;;;;;4980560;28;20461;-85
2023/02/11 06:16:37;;;;;;;662.30;627.93;;;5.90;99.90;;;;;;4980728;28;20455;-85
2023/02/11 06:19:12;;;;;;;674.20;638.87;;;5.90;99.90;;;;;;4980832;28;20534;-85
2023/02/11 06:21:47;;;;;;;669.63;634.47;;;5.70;99.90;;;;;;4981219;28;20462;-87
2023/02/11 06:24:25;;;;;;;661.47;626.53;;;5.80;99.90;;;;;;4979345;28;20522;-86
2023/02/11 06:27:04;;;;;;;692.20;653.70;;;5.80;99.90;;;;;;4980732;28;20443;-85
2023/02/11 06:29:48;;;;;;;691.97;655.80;;;5.90;99.90;;;;;;4981284;28;20509;-85
2023/02/11 06:32:29;;;;;;;691.80;654.50;;;6.00;99.90;;;;;;4982277;28;20810;-85
2023/02/11 06:35:13;;;;;;;681.50;645.73;;;5.90;99.90;;;;;;4981032;28;20605;-85
2023/02/11 06:38:03;;;;;;;703.30;664.40;;;5.90;99.90;;;;;;4982414;28;20475;-85
2023/02/11 06:40:38;;;;;;;677.23;641.23;;;5.90;99.90;;;;;;4985089;28;20538;-85
2023/02/11 06:43:28;;;;;;;663.47;629.63;;;6.00;99.90;;;;;;4984889;28;20451;-85
2023/02/11 06:45:58;;;;;;;617.10;588.20;;;5.90;99.90;;;;;;4980134;28;20462;-85
2023/02/11 06:48:25;;;;;;;573.93;547.53;;;6.00;99.90;;;;;;4981129;28;20474;-85
2023/02/11 06:50:52;;;;;;;608.37;578.67;;;5.90;99.90;;;;;;4980940;28;20549;-86
2023/02/11 06:53:19;;;;;;;628.53;599.93;;;6.00;99.90;;;;;;4980863;28;20455;-87
2023/02/11 06:55:46;;;;;;;640.70;609.47;;;6.00;99.90;;;;;;4980223;28;20487;-86
2023/02/11 06:58:16;;;;;;;660.43;628.93;;;5.90;99.90;;;;;;4980735;28;20557;-87
2023/02/11 07:00:46;;;;;;;714.47;675.67;;;5.90;99.90;;;;;;4981189;28;20486;-85
2023/02/11 07:03:15;;;;;;;705.67;669.03;;;6.00;99.90;;;;;;4980525;28;20458;-86
2023/02/11 07:05:45;;;;;;;629.07;599.60;;;6.00;99.90;;;;;;4980978;28;20483;-82
2023/02/11 07:08:25;;;;;;;667.40;633.93;;;6.10;99.90;;;;;;4981493;28;20546;-84
2023/02/11 07:10:55;;;;;;;640.00;608.83;;;5.90;99.90;;;;;;4979316;28;20483;-84
2023/02/11 07:13:21;;;;;;;655.17;622.37;;;6.00;99.90;;;;;;4981036;28;20948;-86
2023/02/11 07:15:48;;;;;;;667.30;632.47;;;6.00;99.90;;;;;;4980609;28;20455;-84
2023/02/11 07:18:16;;;;;;;647.13;615.97;;;6.00;99.90;;;;;;4980120;28;20466;-84
2023/02/11 07:20:43;;;;;;;660.23;627.83;;;6.00;99.90;;;;;;4980665;28;20474;-84
2023/02/11 07:23:10;;;;;;;642.07;609.67;;;6.10;99.90;;;;;;4980810;28;20458;-84
2023/02/11 07:25:37;;;;;;;650.37;616.77;;;6.10;99.90;;;;;;4981137;28;20495;-84
2023/02/11 07:28:06;;;;;;;671.03;637.13;;;6.00;99.90;;;;;;4982010;28;20482;-81
2023/02/11 07:30:33;;;;;;;677.83;642.93;;;6.10;99.90;;;;;;4988376;28;20635;-83
2023/02/11 07:33:05;;;;;;;665.60;632.10;;;6.10;99.90;;;;;;4989180;28;20443;-84
2023/02/11 07:35:34;;;;;;;612.03;583.13;;;6.20;99.90;;;;;;4989102;28;20481;-84
2023/02/11 07:38:01;;;;;;;613.47;583.73;;;6.20;99.90;;;;;;4988837;28;20451;-85
2023/02/11 07:40:30;;;;;;;660.90;627.90;;;6.20;99.90;;;;;;4991227;28;20482;-85
2023/02/11 07:42:58;;;;;;;646.23;614.87;;;6.20;99.90;;;;;;4992042;28;20470;-83
2023/02/11 07:45:26;;;;;;;672.27;636.90;;;6.20;99.90;;;;;;4990942;28;20455;-84
2023/02/11 07:47:53;;;;;;;700.17;661.90;;;6.20;99.90;;;;;;4990737;28;20443;-85
2023/02/11 07:50:21;;;;;;;701.77;663.53;;;6.10;99.90;;;;;;4990034;28;20475;-85
2023/02/11 07:55:38;;;;;;;686.47;650.03;;;6.30;99.90;;;;;;4991308;28;20451;-83
2023/02/11 08:00:57;;;;;;;698.27;659.50;;;6.20;99.90;;;;;;4988995;28;20557;-85
2023/02/11 08:03:50;;;;;;;759.40;712.80;;;6.30;99.90;;;;;;4987813;28;20473;-83
2023/02/11 08:06:51;;;;;;;717.87;678.83;;;6.40;99.90;;;;;;4985495;28;20440;-84
2023/02/11 08:12:32;;;;;;;742.17;698.87;;;6.40;99.90;;;;;;4987836;28;20515;-84
2023/02/11 08:15:03;;;;;;;725.23;684.13;;;6.40;99.90;;;;;;4989250;28;20462;-84
2023/02/11 08:17:47;;;;;;;718.87;677.23;;;6.40;99.90;;;;;;4989317;28;20490;-85
2023/02/11 08:20:20;;;;;;;741.40;695.97;;;6.50;99.90;;;;;;4986218;28;20459;-86
2023/02/11 08:22:50;;;;;;;751.50;705.27;;;6.50;99.90;;;;;;4986739;28;20474;-85
2023/02/11 08:25:18;;;;;;;751.30;705.10;;;6.50;99.90;;;;;;4986133;28;20832;-85
2023/02/11 08:27:48;;;;;;;751.07;704.47;;;6.50;99.90;;;;;;4990273;28;20486;-85
2023/02/11 08:30:24;;;;;;;746.17;699.87;;;6.60;99.90;;;;;;4991603;28;20470;-86
2023/02/11 08:32:54;;;;;;;744.37;699.50;;;6.50;99.90;;;;;;4990731;28;20534;-85
2023/02/11 08:35:32;;;;;;;746.07;700.27;;;6.50;99.90;;;;;;4990487;28;20459;-85
2023/02/11 08:37:59;;;;;;;734.43;690.87;;;6.50;99.90;;;;;;4989468;28;20631;-83
2023/02/11 08:40:30;;;;;;;723.37;680.90;;;6.60;99.90;;;;;;4991167;28;20457;-87
2023/02/11 08:43:00;;;;;;;724.07;680.87;;;6.60;99.90;;;;;;4992127;28;20443;-85
2023/02/11 08:45:27;;;;;;;744.83;698.70;;;6.60;99.90;;;;;;4990880;28;20466;-86
2023/02/11 08:52:17;;;;;;;;;;;;;;;;;;;;;
2023/02/11 08:55:09;;;;;;;739.17;693.77;;;6.50;99.90;;;;;;4957139;28;20461;-89
2023/02/11 09:00:50;;;;;;;736.70;694.63;;;6.50;99.90;;;;;;5046537;22;20875;-89
2023/02/11 09:03:30;;;;;;;751.83;707.53;;;6.50;99.90;;;;;;5021945;28;20467;-89
2023/02/11 09:05:57;;;;;;;754.87;710.67;;;6.50;99.90;;;;;;5024359;28;20449;-86
2023/02/11 09:08:24;;;;;;;768.30;721.30;;;6.50;99.90;;;;;;5038819;28;20500;-87
2023/02/11 09:10:51;;;;;;;767.30;721.23;;;6.50;99.90;;;;;;5049133;28;20567;-87
2023/02/11 09:13:22;;;;;;;756.67;710.17;;;6.60;99.90;;;;;;5048674;28;20448;-87
2023/02/11 09:15:50;;;;;;;731.73;687.63;;;6.60;99.90;;;;;;5043189;28;20468;-86
2023/02/11 09:18:17;;;;;;;727.80;682.50;;;6.70;99.90;;;;;;5029652;28;20810;-86
2023/02/11 09:20:44;;;;;;;694.43;653.27;;;6.80;99.90;;;;;;5037079;28;20457;-85
2023/02/11 09:23:11;;;;;;;684.53;643.70;;;6.80;99.90;;;;;;5047012;28;20512;-85
2023/02/11 09:26:02;;;;;;;;;;;;;;;;;;;;;
2023/02/11 09:28:29;;;;;;;630.27;596.67;;;6.90;99.90;;;;;;5029126;28;20500;-85
2023/02/11 09:31:01;;;;;;;612.97;579.97;;;7.10;99.90;;;;;;5028442;28;21120;-86
2023/02/11 09:33:28;;;;;;;586.20;555.57;;;6.90;99.90;;;;;;5029262;28;20453;-84
2023/02/11 09:35:55;;;;;;;586.47;557.17;;;7.00;99.90;;;;;;5031787;28;20487;-85
2023/02/11 09:38:23;;;;;;;556.27;527.97;;;7.00;99.90;;;;;;5047413;28;20503;-83
2023/02/11 09:40:50;;;;;;;572.73;543.70;;;7.00;99.90;;;;;;5039419;28;20452;-84
2023/02/11 09:43:21;;;;;;;513.27;488.07;;;7.00;99.90;;;;;;5027222;28;20487;-84
2023/02/11 09:45:49;;;;;;;480.50;457.47;;;7.00;99.90;;;;;;5033031;28;20479;-84
2023/02/11 09:48:20;;;;;;;502.20;477.67;;;7.10;99.90;;;;;;5041057;28;20599;-84
2023/02/11 09:50:50;;;;;;;482.83;459.03;;;7.20;99.90;;;;;;5033309;28;20470;-84
2023/02/11 09:53:23;;;;;;;453.13;431.87;;;7.20;99.90;;;;;;5019541;28;20457;-84
2023/02/11 09:55:54;;;;;;;459.20;438.20;;;7.20;99.90;;;;;;5024127;28;20451;-84
2023/02/11 09:58:26;;;;;;;443.23;422.60;;;7.20;99.90;;;;;;5039193;28;20472;-85
2023/02/11 10:01:03;;;;;;;440.03;418.83;;;7.20;99.90;;;;;;5040355;28;20498;-84
2023/02/11 10:03:50;;;;;;;419.63;399.73;;;7.20;99.90;;;;;;5042784;28;20458;-86
2023/02/11 10:06:32;;;;;;;413.00;394.13;;;7.30;99.90;;;;;;5043355;28;20593;-84
2023/02/11 10:09:08;;;;;;;433.20;412.87;;;7.20;99.90;;;;;;5045306;28;20487;-85
2023/02/11 10:11:49;;;;;;;402.23;383.87;;;7.30;99.90;;;;;;5040455;28;20479;-85
2023/02/11 10:14:28;;;;;;;398.73;379.93;;;7.20;99.90;;;;;;5039132;28;20483;-85
2023/02/11 10:17:07;;;;;;;383.17;365.57;;;7.30;99.90;;;;;;5046811;28;20444;-85
2023/02/11 10:19:46;;;;;;;371.80;354.63;;;7.40;99.90;;;;;;5044658;28;20840;-85
2023/02/11 10:22:19;;;;;;;340.93;325.13;;;7.30;99.90;;;;;;5029460;28;20456;-84
2023/02/11 10:24:57;;;;;;;361.63;346.23;;;7.30;99.90;;;;;;5019641;28;20461;-85
2023/02/11 10:27:30;;;;;;;328.20;313.10;;;7.30;99.90;;;;;;5020792;28;20453;-85
2023/02/11 10:30:02;;;;;;;338.27;322.47;;;7.40;99.90;;;;;;5021402;28;20469;-86
2023/02/11 10:32:36;;;;;;;351.67;335.67;;;7.30;99.90;;;;;;5039999;28;20453;-83
2023/02/11 10:35:14;;;;;;;325.37;310.33;;;7.40;99.90;;;;;;5039306;28;20467;-83
2023/02/11 10:37:41;;;;;;;347.90;332.30;;;7.30;99.90;;;;;;5038952;28;20523;-83
2023/02/11 10:40:14;;;;;;;309.27;295.70;;;7.30;99.90;;;;;;5038721;28;20468;-84
2023/02/11 10:42:43;;;;;;;354.13;337.83;;;7.30;99.90;;;;;;5022724;28;20449;-83
2023/02/11 10:45:19;;;;;;;355.37;339.47;;;7.30;99.90;;;;;;5018982;28;20488;-84
2023/02/11 10:47:45;;;;;;;353.90;337.83;;;7.50;99.90;;;;;;5018999;28;20442;-84
2023/02/11 10:50:23;;;;;;;375.90;358.80;;;7.40;99.90;;;;;;5018303;28;20552;-84
2023/02/11 10:52:50;;;;;;;354.47;338.60;;;7.40;99.90;;;;;;5036908;28;20504;-83
2023/02/11 10:55:20;;;;;;;382.17;364.33;;;7.40;99.90;;;;;;5040282;28;20939;-85
2023/02/11 10:57:55;;;;;;;386.43;368.63;;;7.30;99.90;;;;;;5024195;28;20459;-84
2023/02/11 11:00:37;;;;;;;365.70;348.80;;;7.40;99.90;;;;;;5027739;28;20488;-84
2023/02/11 11:03:15;;;;;;;372.03;354.60;;;7.40;99.90;;;;;;5026339;28;20449;-85
2023/02/11 11:05:49;;;;;;;364.57;347.97;;;7.50;99.90;;;;;;5043579;28;20448;-86
2023/02/11 11:08:18;;;;;;;370.80;353.70;;;7.60;99.90;;;;;;5033125;28;20500;-83
2023/02/11 11:10:47;;;;;;;354.57;338.27;;;7.60;99.90;;;;;;5027871;28;20568;-85
2023/02/11 11:13:27;;;;;;;355.73;338.37;;;7.50;99.90;;;;;;5031011;28;20463;-87
2023/02/11 11:16:17;;;;;;;347.13;331.30;;;7.50;99.90;;;;;;5048144;28;20519;-84
2023/02/11 11:18:46;;;;;;;336.77;321.17;;;7.50;99.90;;;;;;5042543;28;20506;-85
2023/02/11 11:21:18;;;;;;;315.43;300.83;;;7.60;99.90;;;;;;5050936;28;20510;-85
2023/02/11 11:23:51;;;;;;;324.93;309.17;;;7.60;99.90;;;;;;5050834;28;20445;-86
2023/02/11 11:26:26;;;;;;;314.70;300.17;;;7.70;99.90;;;;;;5050178;28;20447;-84
2023/02/11 11:29:07;;;;;;;305.37;290.27;;;7.70;99.90;;;;;;5047393;28;20498;-84
2023/02/11 11:31:45;;;;;;;280.40;266.70;;;7.70;99.90;;;;;;5015398;28;20509;-85
2023/02/11 11:34:22;;;;;;;292.87;278.73;;;7.70;99.90;;;;;;5029469;28;20451;-85
2023/02/11 11:36:51;;;;;;;293.57;279.97;;;7.80;99.90;;;;;;5030495;28;20920;-85
2023/02/11 11:39:22;;;;;;;302.90;287.87;;;7.60;99.90;;;;;;5025563;28;20506;-86
2023/02/11 11:41:51;;;;;;;294.33;280.33;;;7.70;99.90;;;;;;5022263;28;20524;-83
2023/02/11 11:44:25;;;;;;;314.20;299.90;;;7.60;99.90;;;;;;5020888;28;20464;-83
2023/02/11 11:47:15;;;;;;;298.60;286.00;;;7.60;99.90;;;;;;5022064;28;20560;-84
2023/02/11 11:49:48;;;;;;;283.00;269.43;;;7.60;99.90;;;;;;5023258;28;20465;-85
2023/02/11 11:52:26;;;;;;;296.63;283.03;;;7.60;99.90;;;;;;5024066;28;20994;-85
2023/02/11 11:54:58;;;;;;;333.13;317.40;;;7.60;99.90;;;;;;5021123;28;20484;-84
2023/02/11 11:57:29;;;;;;;351.20;334.70;;;7.60;99.90;;;;;;5024613;28;20960;-85
2023/02/11 11:59:58;;;;;;;357.13;339.87;;;7.70;99.90;;;;;;5023171;28;20489;-84
2023/02/11 12:02:55;;;;;;;336.13;320.17;;;7.70;99.90;;;;;;5023304;28;20513;-84
2023/02/11 12:05:26;;;;;;;340.10;324.33;;;7.60;99.90;;;;;;5022106;28;20448;-83
2023/02/11 12:08:06;;;;;;;353.10;335.80;;;7.70;99.90;;;;;;5026079;28;20880;-84
2023/02/11 12:10:55;;;;;;;335.23;319.27;;;7.80;99.90;;;;;;5022494;28;21043;-84
2023/02/11 12:13:34;;;;;;;320.67;306.07;;;7.80;99.90;;;;;;5021572;28;20576;-84
2023/02/11 12:16:20;;;;;;;290.77;277.17;;;7.90;99.90;;;;;;5028126;28;20471;-84
2023/02/11 12:19:21;;;;;;;296.77;282.63;;;7.80;99.90;;;;;;5023411;28;20500;-83
2023/02/11 12:22:01;;;;;;;270.60;257.43;;;8.00;99.90;;;;;;5024281;28;20441;-84
2023/02/11 12:24:47;;;;;;;275.77;262.47;;;8.00;99.90;;;;;;5021722;28;20822;-84
2023/02/11 12:27:22;;;;;;;270.70;256.80;;;7.90;99.90;;;;;;5023841;28;20481;-84
2023/02/11 12:30:00;;;;;;;266.13;253.03;;;7.90;99.90;;;;;;5023942;28;20540;-83
2023/02/11 12:32:32;;;;;;;280.03;266.43;;;8.00;99.90;;;;;;5028482;28;20988;-83
2023/02/11 12:35:14;;;;;;;276.20;262.60;;;8.00;99.90;;;;;;5026378;28;20448;-83
2023/02/11 12:37:51;;;;;;;296.60;282.97;;;7.90;99.90;;;;;;5030087;28;20544;-83
2023/02/11 12:40:27;;;;;;;297.90;282.23;;;7.90;99.90;;;;;;5027232;28;20463;-84
2023/02/11 12:43:16;;;;;;;300.37;286.17;;;7.80;99.90;;;;;;5027357;28;20433;-84
2023/02/11 12:46:09;;;;;;;319.53;303.83;;;7.80;99.90;;;;;;5026487;28;20453;-83
2023/02/11 12:49:18;;;;;;;361.67;343.98;;;7.80;99.90;;;;;;5028003;28;20463;-83
2023/02/11 12:52:05;;;;;;;487.77;462.90;;;7.70;99.90;;;;;;4991684;28;20458;-84
2023/02/11 12:54:40;;;;;;;447.57;426.20;;;7.70;99.90;;;;;;5031576;28;20261;-86
2023/02/11 12:57:17;;;;;;;416.50;394.93;;;7.70;99.90;;;;;;5029689;28;20452;-83
2023/02/11 12:59:54;;;;;;;398.30;378.03;;;7.60;99.90;;;;;;5027970;28;20588;-83
2023/02/11 13:02:28;;;;;;;400.87;382.07;;;7.70;99.90;;;;;;5027438;28;20452;-85
2023/02/11 13:05:00;;;;;;;399.00;378.50;;;7.70;99.90;;;;;;5026872;28;20511;-85
2023/02/11 13:07:33;;;;;;;407.20;388.03;;;7.70;99.90;;;;;;5027704;28;20445;-84
2023/02/11 13:10:06;;;;;;;426.13;405.57;;;7.70;99.90;;;;;;5027174;28;20523;-84
2023/02/11 13:18:26;;;;;;;409.03;388.47;;;7.70;99.90;;;;;;5064038;22;20485;-82
2023/02/11 13:21:05;;;;;;;427.90;407.40;;;7.70;99.90;;;;;;5046781;28;20437;-83
2023/02/11 13:26:46;;;;;;;396.73;378.07;;;7.80;99.90;;;;;;5047714;28;20478;-84
2023/02/11 13:29:27;;;;;;;541.73;510.63;;;7.70;99.90;;;;;;5047682;28;20533;-84
2023/02/11 13:40:31;;;;;;;515.80;486.75;;;8.00;99.90;;;;;;5041299;28;20450;-85
2023/02/11 13:43:00;;;;;;;484.07;457.67;;;7.90;99.90;;;;;;5039993;28;20216;-84
2023/02/11 13:45:31;;;;;;;473.63;448.60;;;7.90;99.90;;;;;;5039156;28;20459;-84
2023/02/11 13:47:59;;;;;;;473.67;449.10;;;7.90;99.90;;;;;;5040133;28;20441;-84
2023/02/11 13:50:27;;;;;;;452.97;429.63;;;7.90;99.90;;;;;;5040103;28;20842;-84
2023/02/11 13:52:58;;;;;;;461.20;438.33;;;8.00;99.90;;;;;;5039648;28;20472;-84
2023/02/11 13:55:26;;;;;;;433.10;409.30;;;8.20;99.90;;;;;;5039261;28;20460;-85